Terminal Aerodrome Forecast
Issued by NWS Twin Cities, MN

Home | Current Version | Previous Version | Graphics & Text | Print | Product List | Glossary On
Versions: 1 2 3 4 5 6 7 8 9 10 11 12 13 14 15 16 17
105
FTUS43 KMPX 242335
TAFEAU
TAF
KEAU 242335Z 2500/2524 04008KT P6SM OVC018
     FM251500 07012G18KT P6SM OVC020
     FM252100 06011KT P6SM VCSH OVC017=

USA.gov is the U.S. government's official web portal to all federal, state and local government web resources and services.